sensor_id;sensor_type;location;lat;lon;timestamp;P1;durP1;ratioP1;P2;durP2;ratioP2
76262;SDS011;65080;50.908;6.916;2023-07-02T00:00:12;12.50;;;3.17;;
76262;SDS011;65080;50.908;6.916;2023-07-02T00:02:41;12.03;;;3.10;;
76262;SDS011;65080;50.908;6.916;2023-07-02T00:05:09;6.40;;;3.03;;
76262;SDS011;65080;50.908;6.916;2023-07-02T00:07:37;7.13;;;3.30;;
76262;SDS011;65080;50.908;6.916;2023-07-02T00:10:06;4.07;;;2.80;;
76262;SDS011;65080;50.908;6.916;2023-07-02T00:12:35;9.90;;;3.70;;
76262;SDS011;65080;50.908;6.916;2023-07-02T00:15:04;9.37;;;2.57;;
76262;SDS011;65080;50.908;6.916;2023-07-02T00:17:33;9.57;;;3.20;;
76262;SDS011;65080;50.908;6.916;2023-07-02T00:20:06;7.30;;;2.90;;
76262;SDS011;65080;50.908;6.916;2023-07-02T00:22:40;5.70;;;2.80;;
76262;SDS011;65080;50.908;6.916;2023-07-02T00:25:12;11.67;;;3.27;;
76262;SDS011;65080;50.908;6.916;2023-07-02T00:27:41;8.47;;;3.43;;
76262;SDS011;65080;50.908;6.916;2023-07-02T00:30:10;4.20;;;3.10;;
76262;SDS011;65080;50.908;6.916;2023-07-02T00:32:39;6.10;;;2.70;;
76262;SDS011;65080;50.908;6.916;2023-07-02T00:35:07;4.87;;;3.23;;
76262;SDS011;65080;50.908;6.916;2023-07-02T00:37:35;5.37;;;2.80;;
76262;SDS011;65080;50.908;6.916;2023-07-02T00:40:04;4.40;;;2.70;;
76262;SDS011;65080;50.908;6.916;2023-07-02T00:42:34;9.90;;;3.40;;
76262;SDS011;65080;50.908;6.916;2023-07-02T00:45:04;7.17;;;3.23;;
76262;SDS011;65080;50.908;6.916;2023-07-02T00:47:34;6.50;;;2.90;;
76262;SDS011;65080;50.908;6.916;2023-07-02T00:50:03;7.47;;;3.13;;
76262;SDS011;65080;50.908;6.916;2023-07-02T00:52:32;7.30;;;3.20;;
76262;SDS011;65080;50.908;6.916;2023-07-02T00:55:01;8.20;;;3.70;;
76262;SDS011;65080;50.908;6.916;2023-07-02T00:57:29;7.80;;;3.10;;
76262;SDS011;65080;50.908;6.916;2023-07-02T00:59:58;9.10;;;3.40;;
76262;SDS011;65080;50.908;6.916;2023-07-02T01:02:29;7.47;;;3.60;;
76262;SDS011;65080;50.908;6.916;2023-07-02T01:04:57;6.77;;;3.70;;
76262;SDS011;65080;50.908;6.916;2023-07-02T01:07:27;9.07;;;3.40;;
76262;SDS011;65080;50.908;6.916;2023-07-02T01:09:56;7.43;;;3.53;;
76262;SDS011;65080;50.908;6.916;2023-07-02T01:12:24;9.00;;;4.53;;
76262;SDS011;65080;50.908;6.916;2023-07-02T01:14:54;9.10;;;3.97;;
76262;SDS011;65080;50.908;6.916;2023-07-02T01:17:26;8.57;;;4.63;;
76262;SDS011;65080;50.908;6.916;2023-07-02T01:19:57;8.50;;;4.37;;
76262;SDS011;65080;50.908;6.916;2023-07-02T01:22:27;9.07;;;4.70;;
76262;SDS011;65080;50.908;6.916;2023-07-02T01:24:56;10.07;;;4.83;;
76262;SDS011;65080;50.908;6.916;2023-07-02T01:27:27;8.97;;;4.70;;
76262;SDS011;65080;50.908;6.916;2023-07-02T01:29:56;8.83;;;5.60;;
76262;SDS011;65080;50.908;6.916;2023-07-02T01:32:24;11.90;;;5.27;;
76262;SDS011;65080;50.908;6.916;2023-07-02T01:34:53;12.23;;;6.03;;
76262;SDS011;65080;50.908;6.916;2023-07-02T01:37:23;12.47;;;6.40;;
76262;SDS011;65080;50.908;6.916;2023-07-02T01:39:51;10.90;;;7.13;;
76262;SDS011;65080;50.908;6.916;2023-07-02T01:42:19;13.47;;;6.73;;
76262;SDS011;65080;50.908;6.916;2023-07-02T01:44:48;15.07;;;6.97;;
76262;SDS011;65080;50.908;6.916;2023-07-02T01:47:17;12.60;;;7.33;;
76262;SDS011;65080;50.908;6.916;2023-07-02T01:49:46;14.00;;;7.10;;
76262;SDS011;65080;50.908;6.916;2023-07-02T01:52:15;12.63;;;6.63;;
76262;SDS011;65080;50.908;6.916;2023-07-02T01:54:45;13.33;;;7.63;;
76262;SDS011;65080;50.908;6.916;2023-07-02T01:57:13;18.07;;;8.03;;
76262;SDS011;65080;50.908;6.916;2023-07-02T01:59:42;16.10;;;8.40;;
76262;SDS011;65080;50.908;6.916;2023-07-02T02:02:10;15.17;;;7.37;;
76262;SDS011;65080;50.908;6.916;2023-07-02T02:04:38;17.87;;;8.53;;
76262;SDS011;65080;50.908;6.916;2023-07-02T02:07:06;11.70;;;6.90;;
76262;SDS011;65080;50.908;6.916;2023-07-02T02:09:34;16.20;;;8.87;;
76262;SDS011;65080;50.908;6.916;2023-07-02T02:12:04;18.07;;;9.20;;
76262;SDS011;65080;50.908;6.916;2023-07-02T02:14:33;18.03;;;8.83;;
76262;SDS011;65080;50.908;6.916;2023-07-02T02:17:01;17.27;;;8.00;;
76262;SDS011;65080;50.908;6.916;2023-07-02T02:19:30;16.63;;;8.10;;
76262;SDS011;65080;50.908;6.916;2023-07-02T02:21:58;18.40;;;8.60;;
76262;SDS011;65080;50.908;6.916;2023-07-02T02:24:26;16.60;;;8.60;;
76262;SDS011;65080;50.908;6.916;2023-07-02T02:26:54;21.50;;;9.70;;
76262;SDS011;65080;50.908;6.916;2023-07-02T02:29:24;18.87;;;9.20;;
76262;SDS011;65080;50.908;6.916;2023-07-02T02:31:52;18.10;;;9.90;;
76262;SDS011;65080;50.908;6.916;2023-07-02T02:34:21;17.33;;;9.10;;
76262;SDS011;65080;50.908;6.916;2023-07-02T02:36:49;16.80;;;9.30;;
76262;SDS011;65080;50.908;6.916;2023-07-02T02:39:17;17.23;;;10.30;;
76262;SDS011;65080;50.908;6.916;2023-07-02T02:41:45;16.83;;;9.33;;
76262;SDS011;65080;50.908;6.916;2023-07-02T02:44:13;18.37;;;9.90;;
76262;SDS011;65080;50.908;6.916;2023-07-02T02:46:43;21.37;;;9.80;;
76262;SDS011;65080;50.908;6.916;2023-07-02T02:49:11;18.50;;;10.00;;
76262;SDS011;65080;50.908;6.916;2023-07-02T02:51:40;21.37;;;10.43;;
76262;SDS011;65080;50.908;6.916;2023-07-02T02:54:08;18.07;;;9.67;;
76262;SDS011;65080;50.908;6.916;2023-07-02T02:56:36;18.83;;;9.00;;
76262;SDS011;65080;50.908;6.916;2023-07-02T02:59:04;18.27;;;9.70;;
76262;SDS011;65080;50.908;6.916;2023-07-02T03:01:32;17.33;;;10.30;;
76262;SDS011;65080;50.908;6.916;2023-07-02T03:04:02;19.40;;;10.17;;
76262;SDS011;65080;50.908;6.916;2023-07-02T03:06:30;18.17;;;10.40;;
76262;SDS011;65080;50.908;6.916;2023-07-02T03:08:59;19.17;;;10.90;;
76262;SDS011;65080;50.908;6.916;2023-07-02T03:11:27;18.10;;;11.13;;
76262;SDS011;65080;50.908;6.916;2023-07-02T03:13:55;20.73;;;11.13;;
76262;SDS011;65080;50.908;6.916;2023-07-02T03:16:23;22.30;;;12.50;;
76262;SDS011;65080;50.908;6.916;2023-07-02T03:18:52;23.37;;;11.00;;
76262;SDS011;65080;50.908;6.916;2023-07-02T03:21:21;21.37;;;10.77;;
76262;SDS011;65080;50.908;6.916;2023-07-02T03:23:49;22.37;;;12.23;;
76262;SDS011;65080;50.908;6.916;2023-07-02T03:26:18;19.00;;;11.30;;
76262;SDS011;65080;50.908;6.916;2023-07-02T03:28:46;27.13;;;11.80;;
76262;SDS011;65080;50.908;6.916;2023-07-02T03:31:15;26.27;;;11.80;;
76262;SDS011;65080;50.908;6.916;2023-07-02T03:33:43;19.57;;;11.60;;
76262;SDS011;65080;50.908;6.916;2023-07-02T03:36:11;24.73;;;11.80;;
76262;SDS011;65080;50.908;6.916;2023-07-02T03:38:41;24.43;;;11.90;;
76262;SDS011;65080;50.908;6.916;2023-07-02T03:41:09;21.93;;;11.87;;
76262;SDS011;65080;50.908;6.916;2023-07-02T03:43:37;24.47;;;12.73;;
76262;SDS011;65080;50.908;6.916;2023-07-02T03:46:06;21.70;;;11.80;;
76262;SDS011;65080;50.908;6.916;2023-07-02T03:48:34;22.53;;;11.63;;
76262;SDS011;65080;50.908;6.916;2023-07-02T03:51:02;23.73;;;11.73;;
76262;SDS011;65080;50.908;6.916;2023-07-02T03:53:30;22.50;;;11.70;;
76262;SDS011;65080;50.908;6.916;2023-07-02T03:56:00;23.47;;;13.13;;
76262;SDS011;65080;50.908;6.916;2023-07-02T03:58:28;29.00;;;13.03;;
76262;SDS011;65080;50.908;6.916;2023-07-02T04:00:56;25.87;;;13.43;;
76262;SDS011;65080;50.908;6.916;2023-07-02T04:03:24;21.37;;;12.53;;
76262;SDS011;65080;50.908;6.916;2023-07-02T04:05:53;25.33;;;11.77;;
76262;SDS011;65080;50.908;6.916;2023-07-02T04:08:21;22.43;;;13.17;;
76262;SDS011;65080;50.908;6.916;2023-07-02T04:10:51;23.67;;;12.07;;
76262;SDS011;65080;50.908;6.916;2023-07-02T04:13:21;24.17;;;13.03;;
76262;SDS011;65080;50.908;6.916;2023-07-02T04:15:49;27.80;;;13.70;;
76262;SDS011;65080;50.908;6.916;2023-07-02T04:18:18;24.87;;;14.27;;
76262;SDS011;65080;50.908;6.916;2023-07-02T04:20:46;29.77;;;15.37;;
76262;SDS011;65080;50.908;6.916;2023-07-02T04:23:15;23.40;;;13.93;;
76262;SDS011;65080;50.908;6.916;2023-07-02T04:25:44;28.30;;;14.60;;
76262;SDS011;65080;50.908;6.916;2023-07-02T04:28:33;26.43;;;14.33;;
76262;SDS011;65080;50.908;6.916;2023-07-02T04:31:01;31.27;;;14.00;;
76262;SDS011;65080;50.908;6.916;2023-07-02T04:33:30;24.37;;;14.40;;
76262;SDS011;65080;50.908;6.916;2023-07-02T04:36:02;32.23;;;15.80;;
76262;SDS011;65080;50.908;6.916;2023-07-02T04:38:30;27.50;;;14.63;;
76262;SDS011;65080;50.908;6.916;2023-07-02T04:40:59;28.70;;;14.87;;
76262;SDS011;65080;50.908;6.916;2023-07-02T04:43:33;29.93;;;15.33;;
76262;SDS011;65080;50.908;6.916;2023-07-02T04:46:01;39.37;;;15.73;;
76262;SDS011;65080;50.908;6.916;2023-07-02T04:48:31;28.00;;;15.10;;
76262;SDS011;65080;50.908;6.916;2023-07-02T04:50:59;36.80;;;15.97;;
76262;SDS011;65080;50.908;6.916;2023-07-02T04:53:27;31.67;;;16.07;;
76262;SDS011;65080;50.908;6.916;2023-07-02T04:55:56;26.97;;;15.40;;
76262;SDS011;65080;50.908;6.916;2023-07-02T04:58:24;34.30;;;15.57;;
76262;SDS011;65080;50.908;6.916;2023-07-02T05:00:54;36.13;;;16.70;;
76262;SDS011;65080;50.908;6.916;2023-07-02T05:03:22;32.43;;;14.80;;
76262;SDS011;65080;50.908;6.916;2023-07-02T05:05:50;29.97;;;16.53;;
76262;SDS011;65080;50.908;6.916;2023-07-02T05:08:18;33.10;;;17.33;;
76262;SDS011;65080;50.908;6.916;2023-07-02T05:10:47;31.07;;;15.37;;
76262;SDS011;65080;50.908;6.916;2023-07-02T05:13:15;36.13;;;17.13;;
76262;SDS011;65080;50.908;6.916;2023-07-02T05:15:44;34.63;;;17.30;;
76262;SDS011;65080;50.908;6.916;2023-07-02T05:18:14;35.97;;;16.60;;
76262;SDS011;65080;50.908;6.916;2023-07-02T05:20:42;31.63;;;16.30;;
76262;SDS011;65080;50.908;6.916;2023-07-02T05:23:10;30.90;;;16.67;;
76262;SDS011;65080;50.908;6.916;2023-07-02T05:25:38;34.70;;;17.90;;
76262;SDS011;65080;50.908;6.916;2023-07-02T05:28:06;38.53;;;18.10;;
76262;SDS011;65080;50.908;6.916;2023-07-02T05:30:35;32.37;;;17.27;;
76262;SDS011;65080;50.908;6.916;2023-07-02T05:33:03;29.50;;;16.70;;
76262;SDS011;65080;50.908;6.916;2023-07-02T05:35:33;35.60;;;16.40;;
76262;SDS011;65080;50.908;6.916;2023-07-02T05:38:01;33.93;;;18.10;;
76262;SDS011;65080;50.908;6.916;2023-07-02T05:40:29;36.23;;;18.10;;
76262;SDS011;65080;50.908;6.916;2023-07-02T05:42:57;34.77;;;17.30;;
76262;SDS011;65080;50.908;6.916;2023-07-02T05:45:25;35.57;;;17.60;;
76262;SDS011;65080;50.908;6.916;2023-07-02T05:47:55;41.03;;;17.63;;
76262;SDS011;65080;50.908;6.916;2023-07-02T05:50:23;31.40;;;16.13;;
76262;SDS011;65080;50.908;6.916;2023-07-02T05:52:53;29.23;;;17.37;;
76262;SDS011;65080;50.908;6.916;2023-07-02T05:55:21;33.20;;;17.90;;
76262;SDS011;65080;50.908;6.916;2023-07-02T05:57:50;36.90;;;18.33;;
76262;SDS011;65080;50.908;6.916;2023-07-02T06:00:18;29.47;;;17.37;;
76262;SDS011;65080;50.908;6.916;2023-07-02T06:02:47;33.57;;;17.10;;
76262;SDS011;65080;50.908;6.916;2023-07-02T06:05:15;32.80;;;18.00;;
76262;SDS011;65080;50.908;6.916;2023-07-02T06:07:43;32.10;;;18.13;;
76262;SDS011;65080;50.908;6.916;2023-07-02T06:10:13;36.80;;;19.57;;
76262;SDS011;65080;50.908;6.916;2023-07-02T06:12:41;33.03;;;18.03;;
76262;SDS011;65080;50.908;6.916;2023-07-02T06:15:10;41.10;;;19.00;;
76262;SDS011;65080;50.908;6.916;2023-07-02T06:17:38;40.07;;;17.80;;
76262;SDS011;65080;50.908;6.916;2023-07-02T06:20:07;30.50;;;17.70;;
76262;SDS011;65080;50.908;6.916;2023-07-02T06:22:36;33.53;;;17.27;;
76262;SDS011;65080;50.908;6.916;2023-07-02T06:25:05;34.50;;;18.13;;
76262;SDS011;65080;50.908;6.916;2023-07-02T06:27:35;38.70;;;19.43;;
76262;SDS011;65080;50.908;6.916;2023-07-02T06:30:04;33.70;;;18.57;;
76262;SDS011;65080;50.908;6.916;2023-07-02T06:32:33;34.30;;;17.90;;
76262;SDS011;65080;50.908;6.916;2023-07-02T06:35:02;38.30;;;19.10;;
76262;SDS011;65080;50.908;6.916;2023-07-02T06:37:32;33.33;;;17.20;;
76262;SDS011;65080;50.908;6.916;2023-07-02T06:40:01;29.57;;;16.73;;
76262;SDS011;65080;50.908;6.916;2023-07-02T06:42:30;31.77;;;17.07;;
76262;SDS011;65080;50.908;6.916;2023-07-02T06:45:00;37.30;;;18.27;;
76262;SDS011;65080;50.908;6.916;2023-07-02T06:47:29;34.63;;;17.90;;
76262;SDS011;65080;50.908;6.916;2023-07-02T06:49:57;39.43;;;19.60;;
76262;SDS011;65080;50.908;6.916;2023-07-02T06:52:25;34.43;;;18.57;;
76262;SDS011;65080;50.908;6.916;2023-07-02T06:54:54;33.97;;;17.43;;
76262;SDS011;65080;50.908;6.916;2023-07-02T06:57:22;31.90;;;17.50;;
76262;SDS011;65080;50.908;6.916;2023-07-02T06:59:51;28.93;;;18.63;;
76262;SDS011;65080;50.908;6.916;2023-07-02T07:02:20;36.70;;;17.90;;
76262;SDS011;65080;50.908;6.916;2023-07-02T07:04:48;32.57;;;16.87;;
76262;SDS011;65080;50.908;6.916;2023-07-02T07:07:17;45.77;;;18.63;;
76262;SDS011;65080;50.908;6.916;2023-07-02T07:09:45;32.57;;;16.00;;
76262;SDS011;65080;50.908;6.916;2023-07-02T07:12:14;31.30;;;16.17;;
76262;SDS011;65080;50.908;6.916;2023-07-02T07:14:42;34.70;;;15.77;;
76262;SDS011;65080;50.908;6.916;2023-07-02T07:17:10;34.53;;;17.47;;
76262;SDS011;65080;50.908;6.916;2023-07-02T07:19:40;36.13;;;16.83;;
76262;SDS011;65080;50.908;6.916;2023-07-02T07:22:09;28.77;;;15.17;;
76262;SDS011;65080;50.908;6.916;2023-07-02T07:24:37;29.60;;;14.90;;
76262;SDS011;65080;50.908;6.916;2023-07-02T07:27:06;35.03;;;15.40;;
76262;SDS011;65080;50.908;6.916;2023-07-02T07:29:34;26.30;;;13.67;;
76262;SDS011;65080;50.908;6.916;2023-07-02T07:32:02;35.97;;;14.87;;
76262;SDS011;65080;50.908;6.916;2023-07-02T07:34:31;30.70;;;15.37;;
76262;SDS011;65080;50.908;6.916;2023-07-02T07:37:01;36.33;;;16.87;;
76262;SDS011;65080;50.908;6.916;2023-07-02T07:39:30;30.57;;;15.33;;
76262;SDS011;65080;50.908;6.916;2023-07-02T07:41:58;37.10;;;15.90;;
76262;SDS011;65080;50.908;6.916;2023-07-02T07:44:26;30.80;;;15.40;;
76262;SDS011;65080;50.908;6.916;2023-07-02T07:46:55;38.03;;;16.37;;
76262;SDS011;65080;50.908;6.916;2023-07-02T07:49:24;29.70;;;14.83;;
76262;SDS011;65080;50.908;6.916;2023-07-02T07:51:52;31.03;;;15.20;;
76262;SDS011;65080;50.908;6.916;2023-07-02T07:54:21;27.90;;;13.27;;
76262;SDS011;65080;50.908;6.916;2023-07-02T07:56:51;28.50;;;14.93;;
76262;SDS011;65080;50.908;6.916;2023-07-02T07:59:19;26.73;;;14.37;;
76262;SDS011;65080;50.908;6.916;2023-07-02T08:01:47;26.03;;;14.50;;
76262;SDS011;65080;50.908;6.916;2023-07-02T08:04:16;29.27;;;15.87;;
76262;SDS011;65080;50.908;6.916;2023-07-02T08:06:45;35.67;;;14.87;;
76262;SDS011;65080;50.908;6.916;2023-07-02T08:09:14;29.40;;;14.00;;
76262;SDS011;65080;50.908;6.916;2023-07-02T08:11:43;27.80;;;13.50;;
76262;SDS011;65080;50.908;6.916;2023-07-02T08:14:12;30.50;;;14.17;;
76262;SDS011;65080;50.908;6.916;2023-07-02T08:16:40;26.30;;;13.43;;
76262;SDS011;65080;50.908;6.916;2023-07-02T08:19:08;28.17;;;13.17;;
76262;SDS011;65080;50.908;6.916;2023-07-02T08:21:37;29.87;;;13.83;;
76262;SDS011;65080;50.908;6.916;2023-07-02T08:24:05;22.23;;;12.37;;
76262;SDS011;65080;50.908;6.916;2023-07-02T08:26:34;24.70;;;13.00;;
76262;SDS011;65080;50.908;6.916;2023-07-02T08:29:03;27.50;;;13.50;;
76262;SDS011;65080;50.908;6.916;2023-07-02T08:31:31;28.37;;;13.47;;
76262;SDS011;65080;50.908;6.916;2023-07-02T08:34:02;24.60;;;13.80;;
76262;SDS011;65080;50.908;6.916;2023-07-02T08:36:30;28.53;;;13.90;;
76262;SDS011;65080;50.908;6.916;2023-07-02T08:38:58;35.07;;;14.57;;
76262;SDS011;65080;50.908;6.916;2023-07-02T08:41:27;24.87;;;13.90;;
76262;SDS011;65080;50.908;6.916;2023-07-02T08:43:58;32.50;;;13.70;;
76262;SDS011;65080;50.908;6.916;2023-07-02T08:46:32;26.27;;;13.93;;
76262;SDS011;65080;50.908;6.916;2023-07-02T08:49:00;34.07;;;14.50;;
76262;SDS011;65080;50.908;6.916;2023-07-02T08:51:29;29.60;;;15.47;;
76262;SDS011;65080;50.908;6.916;2023-07-02T08:53:57;31.63;;;14.10;;
76262;SDS011;65080;50.908;6.916;2023-07-02T08:56:25;27.50;;;13.80;;
76262;SDS011;65080;50.908;6.916;2023-07-02T08:58:54;32.13;;;15.03;;
76262;SDS011;65080;50.908;6.916;2023-07-02T09:01:22;24.40;;;13.93;;
76262;SDS011;65080;50.908;6.916;2023-07-02T09:03:52;25.30;;;11.93;;
76262;SDS011;65080;50.908;6.916;2023-07-02T09:06:26;28.33;;;12.03;;
76262;SDS011;65080;50.908;6.916;2023-07-02T09:09:03;33.30;;;14.27;;
76262;SDS011;65080;50.908;6.916;2023-07-02T09:11:33;27.27;;;13.30;;
76262;SDS011;65080;50.908;6.916;2023-07-02T09:14:02;27.13;;;13.90;;
76262;SDS011;65080;50.908;6.916;2023-07-02T09:16:31;27.50;;;14.47;;
76262;SDS011;65080;50.908;6.916;2023-07-02T09:19:04;28.20;;;13.00;;
76262;SDS011;65080;50.908;6.916;2023-07-02T09:21:37;22.67;;;13.10;;
76262;SDS011;65080;50.908;6.916;2023-07-02T09:24:14;33.40;;;13.97;;
76262;SDS011;65080;50.908;6.916;2023-07-02T09:26:43;26.37;;;12.13;;
76262;SDS011;65080;50.908;6.916;2023-07-02T09:29:12;25.53;;;12.70;;
76262;SDS011;65080;50.908;6.916;2023-07-02T09:31:44;32.83;;;15.10;;
76262;SDS011;65080;50.908;6.916;2023-07-02T09:34:35;25.17;;;13.80;;
76262;SDS011;65080;50.908;6.916;2023-07-02T09:37:05;29.47;;;14.03;;
76262;SDS011;65080;50.908;6.916;2023-07-02T09:39:33;32.07;;;14.83;;
76262;SDS011;65080;50.908;6.916;2023-07-02T09:42:04;25.27;;;13.60;;
76262;SDS011;65080;50.908;6.916;2023-07-02T09:44:34;31.17;;;15.00;;
76262;SDS011;65080;50.908;6.916;2023-07-02T09:47:03;34.67;;;15.87;;
76262;SDS011;65080;50.908;6.916;2023-07-02T09:49:35;31.77;;;13.13;;
76262;SDS011;65080;50.908;6.916;2023-07-02T09:52:05;27.63;;;13.97;;
76262;SDS011;65080;50.908;6.916;2023-07-02T09:54:34;26.97;;;14.20;;
76262;SDS011;65080;50.908;6.916;2023-07-02T09:57:03;28.53;;;14.67;;
76262;SDS011;65080;50.908;6.916;2023-07-02T09:59:34;27.10;;;14.00;;
76262;SDS011;65080;50.908;6.916;2023-07-02T10:02:02;27.63;;;14.00;;
76262;SDS011;65080;50.908;6.916;2023-07-02T10:04:40;22.90;;;14.10;;
76262;SDS011;65080;50.908;6.916;2023-07-02T10:07:10;28.23;;;13.73;;
76262;SDS011;65080;50.908;6.916;2023-07-02T10:09:40;26.80;;;14.20;;
76262;SDS011;65080;50.908;6.916;2023-07-02T10:12:20;28.73;;;14.50;;
76262;SDS011;65080;50.908;6.916;2023-07-02T10:14:50;28.73;;;15.10;;
76262;SDS011;65080;50.908;6.916;2023-07-02T10:17:23;28.30;;;15.60;;
76262;SDS011;65080;50.908;6.916;2023-07-02T10:19:54;27.60;;;14.70;;
76262;SDS011;65080;50.908;6.916;2023-07-02T10:22:23;27.07;;;14.10;;
76262;SDS011;65080;50.908;6.916;2023-07-02T10:24:53;21.83;;;13.37;;
76262;SDS011;65080;50.908;6.916;2023-07-02T10:27:33;26.00;;;12.60;;
76262;SDS011;65080;50.908;6.916;2023-07-02T10:30:03;22.23;;;13.03;;
76262;SDS011;65080;50.908;6.916;2023-07-02T10:32:32;23.57;;;13.10;;
76262;SDS011;65080;50.908;6.916;2023-07-02T10:35:12;29.50;;;13.33;;
76262;SDS011;65080;50.908;6.916;2023-07-02T10:37:41;21.80;;;12.60;;
76262;SDS011;65080;50.908;6.916;2023-07-02T10:40:10;22.13;;;12.60;;
76262;SDS011;65080;50.908;6.916;2023-07-02T10:42:46;24.17;;;13.47;;
76262;SDS011;65080;50.908;6.916;2023-07-02T10:45:15;25.73;;;12.87;;
76262;SDS011;65080;50.908;6.916;2023-07-02T10:47:44;20.30;;;12.00;;
76262;SDS011;65080;50.908;6.916;2023-07-02T10:50:15;25.43;;;13.50;;
76262;SDS011;65080;50.908;6.916;2023-07-02T10:52:44;22.10;;;12.20;;
76262;SDS011;65080;50.908;6.916;2023-07-02T10:55:16;24.67;;;13.13;;
76262;SDS011;65080;50.908;6.916;2023-07-02T10:57:45;24.30;;;12.43;;
76262;SDS011;65080;50.908;6.916;2023-07-02T11:00:14;24.53;;;11.80;;
76262;SDS011;65080;50.908;6.916;2023-07-02T11:02:43;23.67;;;12.47;;
76262;SDS011;65080;50.908;6.916;2023-07-02T11:05:11;20.87;;;11.63;;
76262;SDS011;65080;50.908;6.916;2023-07-02T11:07:42;25.90;;;12.97;;
76262;SDS011;65080;50.908;6.916;2023-07-02T11:10:17;22.20;;;12.10;;
76262;SDS011;65080;50.908;6.916;2023-07-02T11:12:46;22.53;;;12.83;;
76262;SDS011;65080;50.908;6.916;2023-07-02T11:15:16;24.57;;;13.50;;
76262;SDS011;65080;50.908;6.916;2023-07-02T11:17:45;24.37;;;13.20;;
76262;SDS011;65080;50.908;6.916;2023-07-02T11:20:14;33.03;;;12.40;;
76262;SDS011;65080;50.908;6.916;2023-07-02T11:22:44;26.93;;;13.40;;
76262;SDS011;65080;50.908;6.916;2023-07-02T11:25:14;24.37;;;12.20;;
76262;SDS011;65080;50.908;6.916;2023-07-02T11:27:44;26.07;;;13.40;;
76262;SDS011;65080;50.908;6.916;2023-07-02T11:30:12;26.60;;;13.13;;
76262;SDS011;65080;50.908;6.916;2023-07-02T11:32:48;30.70;;;14.17;;
76262;SDS011;65080;50.908;6.916;2023-07-02T11:35:17;26.73;;;12.03;;
76262;SDS011;65080;50.908;6.916;2023-07-02T11:37:47;19.77;;;12.13;;
76262;SDS011;65080;50.908;6.916;2023-07-02T11:40:17;25.50;;;13.33;;
76262;SDS011;65080;50.908;6.916;2023-07-02T11:42:45;24.23;;;12.43;;
76262;SDS011;65080;50.908;6.916;2023-07-02T11:45:14;25.37;;;11.63;;
76262;SDS011;65080;50.908;6.916;2023-07-02T11:47:42;20.37;;;11.80;;
76262;SDS011;65080;50.908;6.916;2023-07-02T11:50:11;20.50;;;11.43;;
76262;SDS011;65080;50.908;6.916;2023-07-02T11:52:53;26.30;;;11.33;;
76262;SDS011;65080;50.908;6.916;2023-07-02T11:55:21;24.43;;;12.00;;
76262;SDS011;65080;50.908;6.916;2023-07-02T11:57:50;28.00;;;12.63;;
76262;SDS011;65080;50.908;6.916;2023-07-02T12:00:18;26.33;;;11.77;;
76262;SDS011;65080;50.908;6.916;2023-07-02T12:02:47;25.10;;;11.90;;
76262;SDS011;65080;50.908;6.916;2023-07-02T12:05:16;25.10;;;11.73;;
76262;SDS011;65080;50.908;6.916;2023-07-02T12:07:44;30.50;;;11.67;;
76262;SDS011;65080;50.908;6.916;2023-07-02T12:10:14;21.77;;;10.70;;
76262;SDS011;65080;50.908;6.916;2023-07-02T12:12:42;18.47;;;11.07;;
76262;SDS011;65080;50.908;6.916;2023-07-02T12:15:10;24.40;;;11.00;;
76262;SDS011;65080;50.908;6.916;2023-07-02T12:17:38;22.03;;;10.93;;
76262;SDS011;65080;50.908;6.916;2023-07-02T12:20:07;23.60;;;11.07;;
76262;SDS011;65080;50.908;6.916;2023-07-02T12:22:36;21.43;;;10.50;;
76262;SDS011;65080;50.908;6.916;2023-07-02T12:25:04;18.10;;;9.10;;
76262;SDS011;65080;50.908;6.916;2023-07-02T12:27:34;22.20;;;9.43;;
76262;SDS011;65080;50.908;6.916;2023-07-02T12:30:04;20.70;;;9.60;;
76262;SDS011;65080;50.908;6.916;2023-07-02T12:32:33;25.53;;;10.50;;
76262;SDS011;65080;50.908;6.916;2023-07-02T12:35:01;16.30;;;8.63;;
76262;SDS011;65080;50.908;6.916;2023-07-02T12:37:31;17.87;;;9.53;;
76262;SDS011;65080;50.908;6.916;2023-07-02T12:39:59;20.03;;;10.43;;
76262;SDS011;65080;50.908;6.916;2023-07-02T12:42:28;18.70;;;10.30;;
76262;SDS011;65080;50.908;6.916;2023-07-02T12:44:57;20.30;;;10.60;;
76262;SDS011;65080;50.908;6.916;2023-07-02T12:47:26;20.57;;;10.60;;
76262;SDS011;65080;50.908;6.916;2023-07-02T12:49:54;15.30;;;9.60;;
76262;SDS011;65080;50.908;6.916;2023-07-02T12:52:22;16.97;;;9.63;;
76262;SDS011;65080;50.908;6.916;2023-07-02T12:54:51;19.20;;;8.97;;
76262;SDS011;65080;50.908;6.916;2023-07-02T12:57:19;19.90;;;9.47;;
76262;SDS011;65080;50.908;6.916;2023-07-02T12:59:47;17.53;;;8.70;;
76262;SDS011;65080;50.908;6.916;2023-07-02T13:02:17;19.30;;;9.30;;
76262;SDS011;65080;50.908;6.916;2023-07-02T13:04:45;21.30;;;10.00;;
76262;SDS011;65080;50.908;6.916;2023-07-02T13:07:14;20.97;;;10.67;;
76262;SDS011;65080;50.908;6.916;2023-07-02T13:09:43;17.10;;;9.10;;
76262;SDS011;65080;50.908;6.916;2023-07-02T13:12:11;20.27;;;9.30;;
76262;SDS011;65080;50.908;6.916;2023-07-02T13:14:39;19.23;;;10.23;;
76262;SDS011;65080;50.908;6.916;2023-07-02T13:17:08;17.47;;;9.70;;
76262;SDS011;65080;50.908;6.916;2023-07-02T13:19:37;17.73;;;9.90;;
76262;SDS011;65080;50.908;6.916;2023-07-02T13:22:06;18.37;;;10.30;;
76262;SDS011;65080;50.908;6.916;2023-07-02T13:24:34;19.43;;;9.90;;
76262;SDS011;65080;50.908;6.916;2023-07-02T13:27:04;23.20;;;10.23;;
76262;SDS011;65080;50.908;6.916;2023-07-02T13:29:35;22.63;;;10.50;;
76262;SDS011;65080;50.908;6.916;2023-07-02T13:32:03;22.20;;;10.73;;
76262;SDS011;65080;50.908;6.916;2023-07-02T13:34:32;22.30;;;10.73;;
76262;SDS011;65080;50.908;6.916;2023-07-02T13:37:02;23.87;;;10.73;;
76262;SDS011;65080;50.908;6.916;2023-07-02T13:39:30;17.90;;;10.23;;
76262;SDS011;65080;50.908;6.916;2023-07-02T13:41:58;21.63;;;11.10;;
76262;SDS011;65080;50.908;6.916;2023-07-02T13:44:27;23.13;;;11.53;;
76262;SDS011;65080;50.908;6.916;2023-07-02T13:46:55;20.40;;;11.93;;
76262;SDS011;65080;50.908;6.916;2023-07-02T13:49:23;31.40;;;18.80;;
76262;SDS011;65080;50.908;6.916;2023-07-02T13:51:53;27.27;;;11.93;;
76262;SDS011;65080;50.908;6.916;2023-07-02T13:54:23;15.27;;;9.80;;
76262;SDS011;65080;50.908;6.916;2023-07-02T13:56:51;17.57;;;11.10;;
76262;SDS011;65080;50.908;6.916;2023-07-02T13:59:22;19.33;;;11.07;;
76262;SDS011;65080;50.908;6.916;2023-07-02T14:01:50;22.47;;;10.10;;
76262;SDS011;65080;50.908;6.916;2023-07-02T14:04:19;18.83;;;10.17;;
76262;SDS011;65080;50.908;6.916;2023-07-02T14:06:47;17.73;;;10.70;;
76262;SDS011;65080;50.908;6.916;2023-07-02T14:09:15;23.30;;;10.07;;
76262;SDS011;65080;50.908;6.916;2023-07-02T14:11:44;20.10;;;10.07;;
76262;SDS011;65080;50.908;6.916;2023-07-02T14:14:12;20.30;;;10.13;;
76262;SDS011;65080;50.908;6.916;2023-07-02T14:16:42;19.07;;;10.40;;
76262;SDS011;65080;50.908;6.916;2023-07-02T14:19:10;20.07;;;10.50;;
76262;SDS011;65080;50.908;6.916;2023-07-02T14:21:39;19.10;;;10.57;;
76262;SDS011;65080;50.908;6.916;2023-07-02T14:24:08;26.00;;;11.80;;
76262;SDS011;65080;50.908;6.916;2023-07-02T14:26:36;25.23;;;9.77;;
76262;SDS011;65080;50.908;6.916;2023-07-02T14:29:04;17.33;;;9.40;;
76262;SDS011;65080;50.908;6.916;2023-07-02T14:31:33;19.43;;;9.67;;
76262;SDS011;65080;50.908;6.916;2023-07-02T14:34:03;21.37;;;10.73;;
76262;SDS011;65080;50.908;6.916;2023-07-02T14:36:31;18.60;;;10.63;;